createdAt,value
2022-08-26T00:00:18.851Z,991.00
2022-08-26T00:01:18.837Z,991.00
2022-08-26T00:02:19.380Z,991.01
2022-08-26T00:03:18.815Z,991.02
2022-08-26T00:04:18.939Z,991.03
2022-08-26T00:05:18.788Z,991.00
2022-08-26T00:06:20.392Z,991.00
2022-08-26T00:07:18.768Z,991.02
2022-08-26T00:08:18.762Z,990.99
2022-08-26T00:09:18.761Z,990.98
2022-08-26T00:10:18.733Z,991.04
2022-08-26T00:11:26.236Z,991.01
2022-08-26T00:12:18.715Z,991.00
2022-08-26T00:13:19.639Z,991.00
2022-08-26T00:14:18.688Z,990.98
2022-08-26T00:15:18.679Z,990.95
2022-08-26T00:16:18.687Z,990.96
2022-08-26T00:17:18.651Z,991.00
2022-08-26T00:18:22.290Z,991.03
2022-08-26T00:19:18.630Z,991.01
2022-08-26T00:20:18.619Z,991.00
2022-08-26T00:21:18.606Z,991.04
2022-08-26T00:22:21.478Z,991.05
2022-08-26T00:23:18.583Z,991.03
2022-08-26T00:24:18.570Z,991.06
2022-08-26T00:25:18.565Z,991.07
2022-08-26T00:26:18.548Z,991.05
2022-08-26T00:27:18.540Z,991.08
2022-08-26T00:28:18.950Z,991.10
2022-08-26T00:29:18.508Z,991.07
2022-08-26T00:30:22.781Z,991.05
2022-08-26T00:31:18.554Z,991.08
2022-08-26T00:32:18.480Z,991.07
2022-08-26T00:33:18.499Z,991.04
2022-08-26T00:34:19.438Z,991.05
2022-08-26T00:35:18.442Z,991.04
2022-08-26T00:36:20.289Z,991.09
2022-08-26T00:37:18.421Z,991.04
2022-08-26T00:38:18.409Z,991.03
2022-08-26T00:39:18.397Z,991.03
2022-08-26T00:40:18.511Z,991.05
2022-08-26T00:41:18.372Z,991.02
2022-08-26T00:42:18.361Z,991.01
2022-08-26T00:43:18.348Z,991.02
2022-08-26T00:44:18.339Z,991.04
2022-08-26T00:45:18.327Z,991.00
2022-08-26T00:46:18.314Z,990.97
2022-08-26T00:47:18.305Z,990.96
2022-08-26T00:48:18.290Z,990.98
2022-08-26T00:49:18.278Z,990.95
2022-08-26T00:50:18.269Z,990.95
2022-08-26T00:51:18.255Z,990.94
2022-08-26T00:52:18.248Z,990.95
2022-08-26T00:53:18.233Z,990.97
2022-08-26T00:54:18.220Z,990.99
2022-08-26T00:55:20.359Z,990.98
2022-08-26T00:56:18.198Z,991.03
2022-08-26T00:57:18.185Z,990.98
2022-08-26T00:58:18.172Z,990.98
2022-08-26T00:59:18.160Z,990.97
2022-08-26T01:00:18.150Z,991.01
2022-08-26T01:01:18.182Z,990.98
2022-08-26T01:02:20.908Z,991.01
2022-08-26T01:03:18.115Z,990.96
2022-08-26T01:04:18.105Z,990.98
2022-08-26T01:05:18.094Z,991.00
2022-08-26T01:06:18.079Z,990.98
2022-08-26T01:07:18.068Z,990.96
2022-08-26T01:08:18.055Z,991.00
2022-08-26T01:09:18.046Z,990.96
2022-08-26T01:10:18.031Z,990.93
2022-08-26T01:11:18.020Z,990.93
2022-08-26T01:12:21.956Z,990.93
2022-08-26T01:13:17.999Z,990.92
2022-08-26T01:14:17.982Z,990.93
2022-08-26T01:15:17.974Z,990.92
2022-08-26T01:16:18.004Z,990.88
2022-08-26T01:17:17.947Z,990.92
2022-08-26T01:18:17.938Z,990.85
2022-08-26T01:19:17.921Z,990.87
2022-08-26T01:20:17.910Z,990.84
2022-08-26T01:21:17.898Z,990.87
2022-08-26T01:22:17.887Z,990.93
2022-08-26T01:23:17.878Z,990.90
2022-08-26T01:24:17.868Z,990.87
2022-08-26T01:25:17.863Z,990.85
2022-08-26T01:26:20.029Z,990.87
2022-08-26T01:27:17.828Z,990.87
2022-08-26T01:28:17.817Z,990.86
2022-08-26T01:29:17.803Z,990.87
2022-08-26T01:30:17.797Z,990.85
2022-08-26T01:31:17.816Z,990.90
2022-08-26T01:32:17.772Z,990.87
2022-08-26T01:33:17.758Z,990.89
2022-08-26T01:34:17.749Z,990.92
2022-08-26T01:35:17.734Z,990.88
2022-08-26T01:36:17.725Z,990.87
2022-08-26T01:37:17.713Z,990.91
2022-08-26T01:38:17.698Z,990.90
2022-08-26T01:39:17.689Z,990.92
2022-08-26T01:40:17.751Z,990.91
2022-08-26T01:41:19.870Z,990.93
2022-08-26T01:42:17.758Z,990.93
2022-08-26T01:43:17.653Z,990.92
2022-08-26T01:44:17.628Z,990.90
2022-08-26T01:45:17.616Z,990.94
2022-08-26T01:46:17.664Z,990.95
2022-08-26T01:47:17.593Z,990.92
2022-08-26T01:48:17.581Z,990.89
2022-08-26T01:49:17.568Z,990.94
2022-08-26T01:50:27.802Z,990.95
2022-08-26T01:51:17.546Z,990.92
2022-08-26T01:52:17.533Z,990.94
2022-08-26T01:53:17.529Z,990.94
2022-08-26T01:54:17.510Z,990.96
2022-08-26T01:55:32.919Z,990.93
2022-08-26T01:56:17.490Z,990.96
2022-08-26T01:57:17.471Z,990.97
2022-08-26T01:58:17.461Z,990.97
2022-08-26T01:59:17.454Z,990.98
2022-08-26T02:00:17.442Z,991.01
2022-08-26T02:01:17.484Z,990.99
2022-08-26T02:02:17.419Z,990.98
2022-08-26T02:03:17.469Z,991.04
2022-08-26T02:04:17.438Z,991.02
2022-08-26T02:05:17.385Z,991.02
2022-08-26T02:06:17.369Z,991.00
2022-08-26T02:07:17.357Z,990.97
2022-08-26T02:08:17.344Z,990.99
2022-08-26T02:09:17.337Z,990.97
2022-08-26T02:10:17.324Z,990.95
2022-08-26T02:11:18.437Z,990.98
2022-08-26T02:12:17.299Z,991.01
2022-08-26T02:13:17.289Z,990.97
2022-08-26T02:14:17.278Z,990.98
2022-08-26T02:15:17.315Z,991.01
2022-08-26T02:16:17.299Z,990.96
2022-08-26T02:17:17.240Z,990.99
2022-08-26T02:18:17.227Z,990.96
2022-08-26T02:19:17.496Z,991.00
2022-08-26T02:20:17.205Z,991.03
2022-08-26T02:21:17.197Z,991.00
2022-08-26T02:22:17.183Z,991.00
2022-08-26T02:23:17.168Z,991.03
2022-08-26T02:24:17.160Z,991.02
2022-08-26T02:25:17.145Z,991.03
2022-08-26T02:26:18.121Z,991.07
2022-08-26T02:27:17.124Z,991.03
2022-08-26T02:28:17.114Z,991.01
2022-08-26T02:29:17.098Z,991.07
2022-08-26T02:30:17.375Z,990.99
2022-08-26T02:31:17.121Z,991.01
2022-08-26T02:32:18.422Z,990.98
2022-08-26T02:33:17.054Z,991.01
2022-08-26T02:34:17.039Z,991.00
2022-08-26T02:35:18.213Z,990.99
2022-08-26T02:36:17.015Z,991.01
2022-08-26T02:37:17.618Z,990.99
2022-08-26T02:38:16.995Z,990.99
2022-08-26T02:39:22.063Z,991.01
2022-08-26T02:40:17.035Z,991.06
2022-08-26T02:41:16.953Z,991.02
2022-08-26T02:42:16.959Z,991.03
2022-08-26T02:43:16.996Z,990.99
2022-08-26T02:44:16.922Z,991.01
2022-08-26T02:45:16.911Z,991.01
2022-08-26T02:46:27.607Z,991.01
2022-08-26T02:47:16.928Z,991.04
2022-08-26T02:48:16.883Z,991.00
2022-08-26T02:49:17.000Z,991.00
2022-08-26T02:50:16.856Z,991.00
2022-08-26T02:51:16.837Z,990.99
2022-08-26T02:52:16.831Z,991.02
2022-08-26T02:53:16.813Z,990.99
2022-08-26T02:54:16.803Z,990.98
2022-08-26T02:55:16.793Z,990.98
2022-08-26T02:56:16.778Z,990.96
2022-08-26T02:57:16.770Z,990.97
2022-08-26T02:58:16.758Z,990.97
2022-08-26T02:59:16.744Z,990.94
2022-08-26T03:00:16.735Z,990.96
2022-08-26T03:01:16.787Z,990.94
2022-08-26T03:02:16.764Z,990.95
2022-08-26T03:03:16.699Z,990.94
2022-08-26T03:04:16.688Z,991.00
2022-08-26T03:05:16.674Z,990.94
2022-08-26T03:06:16.666Z,990.95
2022-08-26T03:07:16.652Z,990.96
2022-08-26T03:08:16.640Z,990.99
2022-08-26T03:09:18.534Z,990.96
2022-08-26T03:10:16.619Z,990.95
2022-08-26T03:11:16.602Z,990.96
2022-08-26T03:12:16.593Z,990.92
2022-08-26T03:13:16.582Z,990.98
2022-08-26T03:14:16.565Z,990.97
2022-08-26T03:15:17.837Z,990.93
2022-08-26T03:16:16.625Z,990.95
2022-08-26T03:17:16.534Z,990.94
2022-08-26T03:18:16.529Z,990.91
2022-08-26T03:19:17.703Z,990.88
2022-08-26T03:20:17.345Z,990.86
2022-08-26T03:21:16.485Z,990.87
2022-08-26T03:22:16.476Z,990.87
2022-08-26T03:23:16.461Z,990.87
2022-08-26T03:24:16.447Z,990.85
2022-08-26T03:25:16.438Z,990.86
2022-08-26T03:26:16.425Z,990.85
2022-08-26T03:27:16.416Z,990.85
2022-08-26T03:28:16.411Z,990.84
2022-08-26T03:29:16.582Z,990.78
2022-08-26T03:30:16.378Z,990.79
2022-08-26T03:31:16.421Z,990.80
2022-08-26T03:32:16.356Z,990.76
2022-08-26T03:33:16.348Z,990.77
2022-08-26T03:34:16.333Z,990.76
2022-08-26T03:35:16.319Z,990.71
2022-08-26T03:36:16.309Z,990.74
2022-08-26T03:37:16.301Z,990.77
2022-08-26T03:38:16.287Z,990.73
2022-08-26T03:39:16.273Z,990.72
2022-08-26T03:40:16.390Z,990.76
2022-08-26T03:41:16.251Z,990.71
2022-08-26T03:42:16.236Z,990.75
2022-08-26T03:43:16.228Z,990.70
2022-08-26T03:44:16.219Z,990.74
2022-08-26T03:45:16.204Z,990.71
2022-08-26T03:46:16.207Z,990.69
2022-08-26T03:47:16.180Z,990.71
2022-08-26T03:48:16.166Z,990.70
2022-08-26T03:49:16.171Z,990.71
2022-08-26T03:50:16.143Z,990.70
2022-08-26T03:51:18.305Z,990.72
2022-08-26T03:52:16.124Z,990.69
2022-08-26T03:53:16.111Z,990.71
2022-08-26T03:54:16.100Z,990.71
2022-08-26T03:55:16.086Z,990.70
2022-08-26T03:56:16.076Z,990.71
2022-08-26T03:57:16.767Z,990.69
2022-08-26T03:58:16.056Z,990.72
2022-08-26T03:59:16.043Z,990.68
2022-08-26T04:00:18.431Z,990.71
2022-08-26T04:01:16.079Z,990.71
2022-08-26T04:02:16.012Z,990.70
2022-08-26T04:03:18.761Z,990.70
2022-08-26T04:04:15.991Z,990.72
2022-08-26T04:05:15.975Z,990.72
2022-08-26T04:06:15.963Z,990.74
2022-08-26T04:07:23.633Z,990.71
2022-08-26T04:09:20.411Z,990.75
2022-08-26T04:10:20.496Z,990.76
2022-08-26T04:11:20.369Z,990.73
2022-08-26T04:12:20.359Z,990.72
2022-08-26T04:13:20.345Z,990.72
2022-08-26T04:14:20.388Z,990.75
2022-08-26T04:15:20.320Z,990.75
2022-08-26T04:16:20.375Z,990.72
2022-08-26T04:17:20.296Z,990.77
2022-08-26T04:18:20.286Z,990.73
2022-08-26T04:19:20.277Z,990.76
2022-08-26T04:20:20.262Z,990.73
2022-08-26T04:21:20.256Z,990.71
2022-08-26T04:22:24.859Z,990.74
2022-08-26T04:23:20.230Z,990.68
2022-08-26T04:24:20.216Z,990.70
2022-08-26T04:25:20.639Z,990.72
2022-08-26T04:26:20.192Z,990.68
2022-08-26T04:27:20.179Z,990.74
2022-08-26T04:28:20.170Z,990.68
2022-08-26T04:29:20.155Z,990.74
2022-08-26T04:30:20.148Z,990.72
2022-08-26T04:31:20.184Z,990.73
2022-08-26T04:32:20.120Z,990.78
2022-08-26T04:33:20.109Z,990.76
2022-08-26T04:34:20.098Z,990.78
2022-08-26T04:35:25.480Z,990.80
2022-08-26T04:36:20.328Z,990.81
2022-08-26T04:37:20.059Z,990.80
2022-08-26T04:38:20.050Z,990.76
2022-08-26T04:39:20.037Z,990.82
2022-08-26T04:40:20.114Z,990.76
2022-08-26T04:41:20.011Z,990.77
2022-08-26T04:42:23.271Z,990.78
2022-08-26T04:43:19.988Z,990.80
2022-08-26T04:44:19.978Z,990.78
2022-08-26T04:45:22.591Z,990.80
2022-08-26T04:46:19.987Z,990.80
2022-08-26T04:47:19.941Z,990.83
2022-08-26T04:48:19.930Z,990.80
2022-08-26T04:49:19.917Z,990.82
2022-08-26T04:50:19.904Z,990.77
2022-08-26T04:51:19.892Z,990.79
2022-08-26T04:52:19.883Z,990.78
2022-08-26T04:53:19.868Z,990.76
2022-08-26T04:54:19.856Z,990.80
2022-08-26T04:55:19.847Z,990.78
2022-08-26T04:56:19.833Z,990.79
2022-08-26T04:57:19.823Z,990.80
2022-08-26T04:58:19.810Z,990.76
2022-08-26T04:59:19.795Z,990.80
2022-08-26T05:00:19.787Z,990.77
2022-08-26T05:01:19.789Z,990.76
2022-08-26T05:02:19.761Z,990.81
2022-08-26T05:03:19.747Z,990.82
2022-08-26T05:04:19.837Z,990.82
2022-08-26T05:05:19.723Z,990.81
2022-08-26T05:06:19.714Z,990.83
2022-08-26T05:07:19.703Z,990.80
2022-08-26T05:08:19.689Z,990.83
2022-08-26T05:09:19.692Z,990.89
2022-08-26T05:10:19.666Z,990.87
2022-08-26T05:11:19.654Z,990.88
2022-08-26T05:12:19.641Z,990.88
2022-08-26T05:13:20.574Z,990.90
2022-08-26T05:14:19.619Z,990.88
2022-08-26T05:15:19.612Z,990.91
2022-08-26T05:16:19.639Z,990.91
2022-08-26T05:17:19.580Z,990.94
2022-08-26T05:18:19.919Z,990.94
2022-08-26T05:19:19.771Z,990.95
2022-08-26T05:20:25.171Z,990.95
2022-08-26T05:21:19.531Z,990.94
2022-08-26T05:22:19.521Z,990.97
2022-08-26T05:23:19.507Z,990.99
2022-08-26T05:24:19.499Z,990.95
2022-08-26T05:25:19.485Z,990.97
2022-08-26T05:26:23.094Z,991.00
2022-08-26T05:27:19.459Z,990.94
2022-08-26T05:28:19.450Z,990.93
2022-08-26T05:29:19.435Z,990.95
2022-08-26T05:30:19.426Z,990.92
2022-08-26T05:31:19.448Z,990.93
2022-08-26T05:32:19.403Z,990.95
2022-08-26T05:33:19.391Z,990.96
2022-08-26T05:34:19.377Z,990.99
2022-08-26T05:35:19.367Z,990.98
2022-08-26T05:36:19.355Z,990.95
2022-08-26T05:37:19.344Z,990.97
2022-08-26T05:38:19.334Z,990.95
2022-08-26T05:39:19.317Z,990.94
2022-08-26T05:40:19.375Z,990.93
2022-08-26T05:41:19.296Z,990.87
2022-08-26T05:42:19.284Z,990.91
2022-08-26T05:43:20.043Z,990.93
2022-08-26T05:44:19.263Z,990.90
2022-08-26T05:45:19.249Z,990.95
2022-08-26T05:46:19.286Z,990.98
2022-08-26T05:47:19.225Z,991.00
2022-08-26T05:48:22.800Z,991.01
2022-08-26T05:49:19.395Z,990.99
2022-08-26T05:50:19.198Z,991.03
2022-08-26T05:51:21.767Z,991.04
2022-08-26T05:52:19.174Z,991.04
2022-08-26T05:53:19.154Z,991.04
2022-08-26T05:54:22.311Z,991.09
2022-08-26T05:55:19.132Z,991.13
2022-08-26T05:56:19.122Z,991.11
2022-08-26T05:57:19.114Z,991.09
2022-08-26T05:58:19.099Z,991.10
2022-08-26T05:59:24.344Z,991.10
2022-08-26T06:00:19.078Z,991.10
2022-08-26T06:01:19.128Z,991.09
2022-08-26T06:02:19.086Z,991.08
2022-08-26T06:03:19.133Z,991.12
2022-08-26T06:04:19.032Z,991.09
2022-08-26T06:05:19.019Z,991.10
2022-08-26T06:06:20.022Z,991.08
2022-08-26T06:07:19.001Z,991.06
2022-08-26T06:08:19.290Z,991.08
2022-08-26T06:09:18.979Z,991.10
2022-08-26T06:10:32.223Z,991.04
2022-08-26T06:11:18.956Z,991.08
2022-08-26T06:12:18.945Z,991.05
2022-08-26T06:13:18.933Z,991.06
2022-08-26T06:14:18.922Z,991.04
2022-08-26T06:15:18.915Z,991.11
2022-08-26T06:16:18.941Z,991.11
2022-08-26T06:17:18.892Z,991.11
2022-08-26T06:18:18.878Z,991.13
2022-08-26T06:19:18.869Z,991.10
2022-08-26T06:20:18.863Z,991.11
2022-08-26T06:21:18.846Z,991.15
2022-08-26T06:22:23.350Z,991.11
2022-08-26T06:23:18.824Z,991.15
2022-08-26T06:24:18.820Z,991.12
2022-08-26T06:25:18.802Z,991.18
2022-08-26T06:26:18.793Z,991.17
2022-08-26T06:27:18.782Z,991.19
2022-08-26T06:28:18.771Z,991.19
2022-08-26T06:29:24.119Z,991.17
2022-08-26T06:30:18.754Z,991.18
2022-08-26T06:31:18.790Z,991.19
2022-08-26T06:32:18.730Z,991.20
2022-08-26T06:33:18.719Z,991.21
2022-08-26T06:34:18.706Z,991.23
2022-08-26T06:35:18.697Z,991.22
2022-08-26T06:36:18.777Z,991.26
2022-08-26T06:37:18.677Z,991.28
2022-08-26T06:38:18.665Z,991.34
2022-08-26T06:39:18.653Z,991.33
2022-08-26T06:40:18.679Z,991.33
2022-08-26T06:41:18.632Z,991.35
2022-08-26T06:42:18.624Z,991.31
2022-08-26T06:43:18.611Z,991.31
2022-08-26T06:44:18.601Z,991.29
2022-08-26T06:45:18.593Z,991.29
2022-08-26T06:46:18.621Z,991.27
2022-08-26T06:47:18.570Z,991.29
2022-08-26T06:48:18.574Z,991.31
2022-08-26T06:49:18.551Z,991.30
2022-08-26T06:50:18.544Z,991.30
2022-08-26T06:51:18.530Z,991.26
2022-08-26T06:52:22.986Z,991.24
2022-08-26T06:53:18.508Z,991.24
2022-08-26T06:54:18.499Z,991.19
2022-08-26T06:55:18.489Z,991.21
2022-08-26T06:56:18.481Z,991.24
2022-08-26T06:57:18.473Z,991.26
2022-08-26T06:58:18.470Z,991.23
2022-08-26T06:59:18.449Z,991.25
2022-08-26T07:00:18.442Z,991.21
2022-08-26T07:01:18.468Z,991.22
2022-08-26T07:02:18.455Z,991.23
2022-08-26T07:03:18.475Z,991.25
2022-08-26T07:04:21.974Z,991.26
2022-08-26T07:05:18.393Z,991.25
2022-08-26T07:06:18.384Z,991.25
2022-08-26T07:07:18.372Z,991.23
2022-08-26T07:08:18.361Z,991.25
2022-08-26T07:09:18.354Z,991.26
2022-08-26T07:10:18.346Z,991.25
2022-08-26T07:11:18.333Z,991.26
2022-08-26T07:12:18.325Z,991.26
2022-08-26T07:13:18.313Z,991.29
2022-08-26T07:14:19.335Z,991.26
2022-08-26T07:15:18.294Z,991.28
2022-08-26T07:16:18.329Z,991.27
2022-08-26T07:17:18.277Z,991.24
2022-08-26T07:18:18.269Z,991.27
2022-08-26T07:19:18.257Z,991.28
2022-08-26T07:20:18.247Z,991.26
2022-08-26T07:21:18.405Z,991.27
2022-08-26T07:22:18.230Z,991.30
2022-08-26T07:23:18.224Z,991.30
2022-08-26T07:24:18.214Z,991.35
2022-08-26T07:25:19.349Z,991.33
2022-08-26T07:26:18.193Z,991.37
2022-08-26T07:27:18.188Z,991.32
2022-08-26T07:28:18.181Z,991.37
2022-08-26T07:29:18.170Z,991.36
2022-08-26T07:30:18.158Z,991.35
2022-08-26T07:31:18.280Z,991.37
2022-08-26T07:32:18.156Z,991.36
2022-08-26T07:33:18.137Z,991.38
2022-08-26T07:34:18.123Z,991.40
2022-08-26T07:35:18.120Z,991.39
2022-08-26T07:36:18.109Z,991.39
2022-08-26T07:37:18.106Z,991.36
2022-08-26T07:38:18.095Z,991.33
2022-08-26T07:39:18.086Z,991.35
2022-08-26T07:40:18.125Z,991.34
2022-08-26T07:41:18.084Z,991.37
2022-08-26T07:42:18.489Z,991.38
2022-08-26T07:43:18.053Z,991.39
2022-08-26T07:44:18.045Z,991.40
2022-08-26T07:45:18.037Z,991.42
2022-08-26T07:46:18.027Z,991.44
2022-08-26T07:47:25.031Z,991.41
2022-08-26T07:48:18.012Z,991.48
2022-08-26T07:49:18.049Z,991.41
2022-08-26T07:50:17.999Z,991.40
2022-08-26T07:51:17.995Z,991.43
2022-08-26T07:52:19.871Z,991.38
2022-08-26T07:53:18.228Z,991.39
2022-08-26T07:54:17.971Z,991.42
2022-08-26T07:55:17.963Z,991.43
2022-08-26T07:56:17.955Z,991.42
2022-08-26T07:57:19.169Z,991.44
2022-08-26T07:58:17.942Z,991.45
2022-08-26T07:59:17.937Z,991.45
2022-08-26T08:00:17.933Z,991.47
2022-08-26T08:01:17.964Z,991.44
2022-08-26T08:02:17.916Z,991.47
2022-08-26T08:03:17.912Z,991.48
2022-08-26T08:04:18.133Z,991.44
2022-08-26T08:05:17.939Z,991.48
2022-08-26T08:06:17.893Z,991.48
2022-08-26T08:07:17.892Z,991.46
2022-08-26T08:08:27.508Z,991.47
2022-08-26T08:09:17.882Z,991.45
2022-08-26T08:10:17.871Z,991.50
2022-08-26T08:11:17.867Z,991.47
2022-08-26T08:12:17.859Z,991.46
2022-08-26T08:13:17.857Z,991.46
2022-08-26T08:14:17.870Z,991.48
2022-08-26T08:15:17.848Z,991.47
2022-08-26T08:16:17.859Z,991.48
2022-08-26T08:17:17.838Z,991.45
2022-08-26T08:18:17.832Z,991.48
2022-08-26T08:19:17.825Z,991.49
2022-08-26T08:20:17.819Z,991.49
2022-08-26T08:21:21.290Z,991.54
2022-08-26T08:22:19.933Z,991.47
2022-08-26T08:23:17.810Z,991.44
2022-08-26T08:24:17.802Z,991.46
2022-08-26T08:25:17.799Z,991.47
2022-08-26T08:26:17.794Z,991.45
2022-08-26T08:27:22.851Z,991.44
2022-08-26T08:28:17.786Z,991.40
2022-08-26T08:29:17.844Z,991.47
2022-08-26T08:30:17.778Z,991.41
2022-08-26T08:31:21.642Z,991.42
2022-08-26T08:32:17.767Z,991.45
2022-08-26T08:33:17.769Z,991.41
2022-08-26T08:34:18.105Z,991.47
2022-08-26T08:35:17.755Z,991.43
2022-08-26T08:36:20.368Z,991.43
2022-08-26T08:37:17.750Z,991.42
2022-08-26T08:38:17.744Z,991.43
2022-08-26T08:39:17.817Z,991.44
2022-08-26T08:40:17.786Z,991.42
2022-08-26T08:41:17.731Z,991.43
2022-08-26T08:42:17.724Z,991.38
2022-08-26T08:43:17.730Z,991.44
2022-08-26T08:44:17.750Z,991.37
2022-08-26T08:45:17.718Z,991.40
2022-08-26T08:46:17.756Z,991.36
2022-08-26T08:47:17.706Z,991.33
2022-08-26T08:48:17.702Z,991.33
2022-08-26T08:49:17.779Z,991.33
2022-08-26T08:50:17.710Z,991.31
2022-08-26T08:51:17.689Z,991.36
2022-08-26T08:52:17.684Z,991.37
2022-08-26T08:53:17.680Z,991.35
2022-08-26T08:54:17.674Z,991.38
2022-08-26T08:55:18.212Z,991.36
2022-08-26T08:56:17.669Z,991.33
2022-08-26T08:57:17.694Z,991.36
2022-08-26T08:58:19.148Z,991.34
2022-08-26T08:59:17.722Z,991.31
2022-08-26T09:00:17.790Z,991.32
2022-08-26T09:01:17.676Z,991.30
2022-08-26T09:02:17.702Z,991.30
2022-08-26T09:03:17.646Z,991.30
2022-08-26T09:04:17.639Z,991.30
2022-08-26T09:05:17.640Z,991.29
2022-08-26T09:06:17.632Z,991.32
2022-08-26T09:07:17.630Z,991.31
2022-08-26T09:08:19.888Z,991.28
2022-08-26T09:09:17.626Z,991.32
2022-08-26T09:10:17.724Z,991.29
2022-08-26T09:11:17.620Z,991.30
2022-08-26T09:12:17.617Z,991.29
2022-08-26T09:13:25.053Z,991.29
2022-08-26T09:14:17.614Z,991.27
2022-08-26T09:15:17.612Z,991.29
2022-08-26T09:16:19.165Z,991.27
2022-08-26T09:17:17.608Z,991.23
2022-08-26T09:18:17.605Z,991.24
2022-08-26T09:19:18.865Z,991.25
2022-08-26T09:20:17.695Z,991.28
2022-08-26T09:21:17.939Z,991.25
2022-08-26T09:22:17.630Z,991.27
2022-08-26T09:23:17.597Z,991.29
2022-08-26T09:24:18.143Z,991.24
2022-08-26T09:25:18.071Z,991.26
2022-08-26T09:26:17.597Z,991.23
2022-08-26T09:27:17.606Z,991.22
2022-08-26T09:28:17.591Z,991.24
2022-08-26T09:29:17.671Z,991.26
2022-08-26T09:30:17.702Z,991.23
2022-08-26T09:31:17.649Z,991.21
2022-08-26T09:32:17.588Z,991.19
2022-08-26T09:33:17.589Z,991.22
2022-08-26T09:34:17.856Z,991.24
2022-08-26T09:35:17.589Z,991.25
2022-08-26T09:36:17.588Z,991.22
2022-08-26T09:37:17.589Z,991.24
2022-08-26T09:38:17.586Z,991.19
2022-08-26T09:39:17.587Z,991.23
2022-08-26T09:40:17.791Z,991.22
2022-08-26T09:41:17.587Z,991.23
2022-08-26T09:42:17.587Z,991.26
2022-08-26T09:43:22.801Z,991.28
2022-08-26T09:44:17.586Z,991.29
2022-08-26T09:45:17.607Z,991.26
2022-08-26T09:46:17.709Z,991.32
2022-08-26T09:47:17.585Z,991.28
2022-08-26T09:48:17.730Z,991.27
2022-08-26T09:49:17.588Z,991.27
2022-08-26T09:50:17.584Z,991.30
2022-08-26T09:51:17.585Z,991.27
2022-08-26T09:52:17.586Z,991.25
2022-08-26T09:53:17.584Z,991.26
2022-08-26T09:54:20.771Z,991.17
2022-08-26T09:55:17.585Z,991.22
2022-08-26T09:56:17.582Z,991.28
2022-08-26T09:57:17.585Z,991.21
2022-08-26T09:58:17.582Z,991.17
2022-08-26T09:59:18.897Z,991.10
2022-08-26T10:00:17.581Z,991.03
2022-08-26T10:01:17.669Z,991.06
2022-08-26T10:02:17.579Z,991.03
2022-08-26T10:03:17.581Z,990.99
2022-08-26T10:04:17.612Z,990.90
2022-08-26T10:05:17.580Z,990.85
2022-08-26T10:06:17.579Z,990.87
2022-08-26T10:07:17.578Z,990.84
2022-08-26T10:08:17.577Z,990.83
2022-08-26T10:09:17.576Z,990.75
2022-08-26T10:10:17.579Z,990.81
2022-08-26T10:11:17.580Z,990.82
2022-08-26T10:12:17.576Z,990.83
2022-08-26T10:13:17.577Z,990.87
2022-08-26T10:14:17.576Z,990.90
2022-08-26T10:15:17.580Z,990.90
2022-08-26T10:16:17.828Z,990.96
2022-08-26T10:17:17.576Z,990.95
2022-08-26T10:18:17.574Z,990.98
2022-08-26T10:19:17.576Z,990.94
2022-08-26T10:20:22.691Z,990.99
2022-08-26T10:21:17.965Z,990.98
2022-08-26T10:22:17.573Z,990.98
2022-08-26T10:23:17.570Z,990.93
2022-08-26T10:24:17.569Z,990.92
2022-08-26T10:25:17.570Z,990.90
2022-08-26T10:26:17.574Z,990.89
2022-08-26T10:27:17.566Z,990.84
2022-08-26T10:28:17.562Z,990.83
2022-08-26T10:29:17.565Z,990.81
2022-08-26T10:30:17.559Z,990.79
2022-08-26T10:31:17.559Z,990.82
2022-08-26T10:32:17.645Z,990.79
2022-08-26T10:33:17.946Z,990.75
2022-08-26T10:34:17.549Z,990.78
2022-08-26T10:35:17.550Z,990.83
2022-08-26T10:36:20.287Z,990.86
2022-08-26T10:37:17.542Z,990.85
2022-08-26T10:38:17.537Z,990.80
2022-08-26T10:39:17.539Z,990.83
2022-08-26T10:40:17.665Z,990.82
2022-08-26T10:41:18.257Z,990.86
2022-08-26T10:42:17.527Z,990.92
2022-08-26T10:43:17.526Z,990.86
2022-08-26T10:44:17.520Z,990.92
2022-08-26T10:45:17.512Z,990.92
2022-08-26T10:46:17.533Z,990.91
2022-08-26T10:47:17.515Z,990.90
2022-08-26T10:48:17.497Z,990.89
2022-08-26T10:49:17.493Z,990.92
2022-08-26T10:50:18.024Z,990.90
2022-08-26T10:51:17.484Z,990.83
2022-08-26T10:52:17.477Z,990.82
2022-08-26T10:53:17.474Z,990.83
2022-08-26T10:54:17.466Z,990.83
2022-08-26T10:55:17.462Z,990.80
2022-08-26T10:56:19.190Z,990.77
2022-08-26T10:57:17.452Z,990.74
2022-08-26T10:58:26.064Z,990.72
2022-08-26T10:59:17.443Z,990.77
2022-08-26T11:00:17.442Z,990.66
2022-08-26T11:01:17.461Z,990.69
2022-08-26T11:02:19.497Z,990.65
2022-08-26T11:03:21.898Z,990.68
2022-08-26T11:04:17.469Z,990.70
2022-08-26T11:05:17.408Z,990.67
2022-08-26T11:06:17.409Z,990.71
2022-08-26T11:07:17.394Z,990.69
2022-08-26T11:08:17.419Z,990.75
2022-08-26T11:09:17.380Z,990.77
2022-08-26T11:10:17.375Z,990.77
2022-08-26T11:11:17.368Z,990.79
2022-08-26T11:12:17.362Z,990.73
2022-08-26T11:13:17.356Z,990.71
2022-08-26T11:14:17.348Z,990.79
2022-08-26T11:15:17.347Z,990.73
2022-08-26T11:16:17.367Z,990.73
2022-08-26T11:17:17.332Z,990.68
2022-08-26T11:18:17.322Z,990.72
2022-08-26T11:19:17.314Z,990.67
2022-08-26T11:20:17.307Z,990.67
2022-08-26T11:21:17.304Z,990.63
2022-08-26T11:22:17.291Z,990.67
2022-08-26T11:23:17.287Z,990.67
2022-08-26T11:24:17.281Z,990.69
2022-08-26T11:25:18.206Z,990.68
2022-08-26T11:26:36.024Z,990.63
2022-08-26T11:27:17.257Z,990.65
2022-08-26T11:28:17.251Z,990.65
2022-08-26T11:29:17.241Z,990.60
2022-08-26T11:30:18.556Z,990.66
2022-08-26T11:31:17.270Z,990.62
2022-08-26T11:32:17.220Z,990.59
2022-08-26T11:33:17.211Z,990.57
2022-08-26T11:34:17.204Z,990.57
2022-08-26T11:35:17.198Z,990.57
2022-08-26T11:36:17.192Z,990.55
2022-08-26T11:37:17.257Z,990.54
2022-08-26T11:38:17.173Z,990.50
2022-08-26T11:39:17.167Z,990.46
2022-08-26T11:40:17.191Z,990.44
2022-08-26T11:41:17.152Z,990.42
2022-08-26T11:42:20.325Z,990.40
2022-08-26T11:43:17.133Z,990.40
2022-08-26T11:44:17.128Z,990.39
2022-08-26T11:45:17.120Z,990.35
2022-08-26T11:46:17.160Z,990.35
2022-08-26T11:47:17.103Z,990.37
2022-08-26T11:48:17.100Z,990.35
2022-08-26T11:49:17.093Z,990.31
2022-08-26T11:50:17.079Z,990.34
2022-08-26T11:51:17.070Z,990.31
2022-08-26T11:52:17.067Z,990.28
2022-08-26T11:53:17.057Z,990.30
2022-08-26T11:54:17.048Z,990.31
2022-08-26T11:55:17.041Z,990.30
2022-08-26T11:56:17.034Z,990.33
2022-08-26T11:57:17.025Z,990.33
2022-08-26T11:58:17.017Z,990.32
2022-08-26T11:59:17.010Z,990.32
2022-08-26T12:00:20.937Z,990.35
2022-08-26T12:01:17.080Z,990.37
2022-08-26T12:02:17.898Z,990.36
2022-08-26T12:03:17.093Z,990.37
2022-08-26T12:04:17.072Z,990.37
2022-08-26T12:05:16.960Z,990.35
2022-08-26T12:06:17.025Z,990.37
2022-08-26T12:07:16.946Z,990.34
2022-08-26T12:08:16.938Z,990.36
2022-08-26T12:09:16.930Z,990.35
2022-08-26T12:10:16.923Z,990.39
2022-08-26T12:11:16.916Z,990.39
2022-08-26T12:12:16.908Z,990.38
2022-08-26T12:13:16.902Z,990.36
2022-08-26T12:14:16.891Z,990.37
2022-08-26T12:15:16.884Z,990.29
2022-08-26T12:16:16.923Z,990.30
2022-08-26T12:17:16.871Z,990.27
2022-08-26T12:18:16.861Z,990.21
2022-08-26T12:19:16.853Z,990.22
2022-08-26T12:20:16.849Z,990.22
2022-08-26T12:21:16.839Z,990.20
2022-08-26T12:22:16.833Z,990.19
2022-08-26T12:23:16.826Z,990.18
2022-08-26T12:24:16.820Z,990.15
2022-08-26T12:25:16.810Z,990.17
2022-08-26T12:26:16.803Z,990.10
2022-08-26T12:27:16.793Z,990.09
2022-08-26T12:28:16.788Z,990.06
2022-08-26T12:29:20.103Z,990.04